createdAt,value
2023-05-12T00:21:54.026Z,1.70
2023-05-12T00:27:20.240Z,2.05
2023-05-12T00:32:26.297Z,1.15
2023-05-12T00:37:31.886Z,1.58
2023-05-12T00:42:55.480Z,1.70
2023-05-12T00:48:01.171Z,1.58
2023-05-12T00:53:18.202Z,1.48
2023-05-12T00:59:00.104Z,2.45
2023-05-12T01:04:16.330Z,2.22
2023-05-12T01:09:27.149Z,2.47
2023-05-12T01:14:38.711Z,2.88
2023-05-12T01:19:52.519Z,1.48
2023-05-12T01:24:59.022Z,1.48
2023-05-12T01:30:05.314Z,1.13
2023-05-12T01:35:11.056Z,1.48
2023-05-12T01:40:19.201Z,2.00
2023-05-12T01:45:23.133Z,1.20
2023-05-12T01:50:29.701Z,1.30
2023-05-12T01:55:34.628Z,1.95
2023-05-12T02:00:38.262Z,1.42
2023-05-12T02:05:44.049Z,1.00
2023-05-12T02:10:46.937Z,0.90
2023-05-12T02:15:49.606Z,1.50
2023-05-12T02:20:53.198Z,1.20
2023-05-12T02:25:55.991Z,2.78
2023-05-12T02:30:58.825Z,1.27
2023-05-12T02:36:08.413Z,1.50
2023-05-12T02:41:13.044Z,2.35
2023-05-12T02:46:23.621Z,1.67
2023-05-12T02:51:28.859Z,1.92
2023-05-12T02:56:34.058Z,1.20
2023-05-12T03:01:40.224Z,1.85
2023-05-12T03:06:49.315Z,1.50
2023-05-12T03:11:55.250Z,1.30
2023-05-12T03:17:11.700Z,1.20
2023-05-12T03:22:23.941Z,1.67
2023-05-12T03:28:22.278Z,1.50
2023-05-12T03:33:26.579Z,1.65
2023-05-12T03:38:32.830Z,1.80
2023-05-12T03:43:38.251Z,1.75
2023-05-12T03:48:46.516Z,2.88
2023-05-12T03:53:54.432Z,1.75
2023-05-12T03:59:04.567Z,1.40
2023-05-12T04:04:07.523Z,1.20
2023-05-12T04:09:16.721Z,2.13
2023-05-12T04:14:31.850Z,2.15
2023-05-12T04:19:43.183Z,1.30
2023-05-12T04:24:47.779Z,1.38
2023-05-12T04:29:50.775Z,2.55
2023-05-12T04:34:56.253Z,2.95
2023-05-12T04:39:59.802Z,1.50
2023-05-12T04:45:03.321Z,1.65
2023-05-12T04:50:19.729Z,1.38
2023-05-12T04:55:24.152Z,1.60
2023-05-12T05:05:50.898Z,2.35
2023-05-12T05:10:56.016Z,1.52
2023-05-12T05:16:01.361Z,1.95
2023-05-12T05:21:09.674Z,1.75
2023-05-12T05:26:20.415Z,2.00
2023-05-12T05:31:30.480Z,2.85
2023-05-12T05:36:48.528Z,1.67
2023-05-12T05:42:07.066Z,2.00
2023-05-12T05:47:19.980Z,1.30
2023-05-12T05:52:24.788Z,1.30
2023-05-12T05:57:45.622Z,1.35
2023-05-12T06:02:51.399Z,1.20
2023-05-12T06:07:56.615Z,3.05
2023-05-12T06:13:01.051Z,2.17
2023-05-12T06:18:03.488Z,1.40
2023-05-12T06:23:07.585Z,1.92
2023-05-12T06:28:10.973Z,1.42
2023-05-12T06:33:15.513Z,1.42
2023-05-12T06:38:17.875Z,1.50
2023-05-12T06:43:20.748Z,0.85
2023-05-12T06:48:24.003Z,1.20
2023-05-12T06:53:26.473Z,1.50
2023-05-12T06:58:30.198Z,1.00
2023-05-12T07:03:33.705Z,1.60
2023-05-12T07:08:37.082Z,1.40
2023-05-12T07:13:40.056Z,1.77
2023-05-12T07:18:44.966Z,2.67
2023-05-12T07:23:47.378Z,1.50
2023-05-12T07:28:50.947Z,2.42
2023-05-12T07:34:09.973Z,2.92
2023-05-12T07:39:15.992Z,2.42
2023-05-12T07:44:20.132Z,2.20
2023-05-12T07:49:30.608Z,1.80
2023-05-12T07:54:56.647Z,1.98
2023-05-12T08:00:01.026Z,1.80
2023-05-12T08:05:09.489Z,2.20
2023-05-12T08:15:54.090Z,3.17
2023-05-12T08:26:36.810Z,1.92
2023-05-12T08:32:15.703Z,2.22
2023-05-12T08:42:53.993Z,1.90
2023-05-12T08:48:16.224Z,2.20
2023-05-12T08:53:42.771Z,1.92
2023-05-12T08:59:21.956Z,2.20
2023-05-12T09:09:32.845Z,2.72
2023-05-12T09:14:36.956Z,1.88
2023-05-12T09:19:39.234Z,1.73
2023-05-12T09:24:45.305Z,1.88
2023-05-12T09:29:59.559Z,2.90
2023-05-12T09:35:05.646Z,2.22
2023-05-12T09:40:11.583Z,2.67
2023-05-12T09:45:22.252Z,2.47
2023-05-12T09:51:04.146Z,3.80
2023-05-12T09:56:32.227Z,2.00
2023-05-12T10:07:27.942Z,2.60
2023-05-12T10:12:52.060Z,2.90
2023-05-12T10:18:08.347Z,2.55
2023-05-12T10:23:12.703Z,4.53
2023-05-12T10:28:22.246Z,2.47
2023-05-12T10:33:30.265Z,2.38
2023-05-12T10:38:38.086Z,3.30
2023-05-12T10:43:44.720Z,3.13
2023-05-12T10:54:45.085Z,3.53
2023-05-12T11:00:20.648Z,3.45
2023-05-12T11:05:42.508Z,3.03
2023-05-12T11:10:51.322Z,3.60
2023-05-12T11:16:04.723Z,3.67
2023-05-12T11:21:14.423Z,1.95
2023-05-12T11:26:23.248Z,2.53
2023-05-12T11:31:29.867Z,2.15
2023-05-12T11:36:42.588Z,3.30
2023-05-12T11:47:06.974Z,3.17
2023-05-12T11:52:11.913Z,2.22
2023-05-12T11:57:33.019Z,2.40
2023-05-12T12:02:44.468Z,2.40
2023-05-12T12:08:00.502Z,3.38
2023-05-12T12:13:07.697Z,2.50
2023-05-12T12:18:33.656Z,2.03
2023-05-12T12:23:47.691Z,2.55
2023-05-12T12:28:53.529Z,3.38
2023-05-12T12:34:00.972Z,1.92
2023-05-12T12:39:34.876Z,2.00
2023-05-12T12:44:51.496Z,1.90
2023-05-12T12:49:55.544Z,3.05
2023-05-12T12:54:58.179Z,2.08
2023-05-12T13:00:02.568Z,1.95
2023-05-12T13:05:08.370Z,2.42
2023-05-12T13:10:12.441Z,4.22
2023-05-12T13:15:14.709Z,2.10
2023-05-12T13:20:17.544Z,3.05
2023-05-12T13:25:20.001Z,3.72
2023-05-12T13:30:29.158Z,4.18
2023-05-12T13:41:30.139Z,3.33
2023-05-12T13:46:41.812Z,4.63
2023-05-12T13:51:44.046Z,3.83
2023-05-12T13:56:47.695Z,5.22
2023-05-12T14:01:50.260Z,4.43
2023-05-12T14:07:01.913Z,3.53
2023-05-12T14:17:55.371Z,3.85
2023-05-12T14:22:58.831Z,4.32
2023-05-12T14:28:11.903Z,3.75
2023-05-12T14:33:27.021Z,4.85
2023-05-12T14:38:56.903Z,5.75
2023-05-12T14:44:24.800Z,7.03
2023-05-12T14:49:32.503Z,5.22
2023-05-12T14:54:34.990Z,5.43
2023-05-12T14:59:38.057Z,4.93
2023-05-12T15:04:43.444Z,4.88
2023-05-12T15:10:07.498Z,6.05
2023-05-12T15:15:25.982Z,6.15
2023-05-12T15:26:33.070Z,6.55
2023-05-12T15:32:12.244Z,7.22
2023-05-12T15:38:17.411Z,6.18
2023-05-12T15:43:21.909Z,6.45
2023-05-12T16:06:52.103Z,7.28
2023-05-12T16:18:09.083Z,7.88
2023-05-12T16:24:09.001Z,7.33
2023-05-12T16:35:34.387Z,7.75
2023-05-12T16:47:35.715Z,6.53
2023-05-12T16:52:38.671Z,5.00
2023-05-12T16:57:59.749Z,8.40
2023-05-12T17:03:05.079Z,6.67
2023-05-12T17:08:23.619Z,6.47
2023-05-12T17:13:26.007Z,5.43
2023-05-12T17:18:33.022Z,5.40
2023-05-12T17:23:58.266Z,6.13
2023-05-12T17:34:37.257Z,6.00
2023-05-12T17:39:48.019Z,4.63
2023-05-12T17:44:51.682Z,4.40
2023-05-12T17:49:55.084Z,4.97
2023-05-12T17:54:58.803Z,6.90
2023-05-12T18:00:11.401Z,4.57
2023-05-12T18:05:20.372Z,5.32
2023-05-12T18:10:31.005Z,5.80
2023-05-12T18:15:37.928Z,5.18
2023-05-12T18:20:57.330Z,4.80
2023-05-12T18:26:13.645Z,5.50
2023-05-12T18:31:29.170Z,5.57
2023-05-12T18:36:36.120Z,4.70
2023-05-12T18:41:39.911Z,5.25
2023-05-12T18:46:42.500Z,6.90
2023-05-12T18:51:44.780Z,7.88
2023-05-12T18:56:58.182Z,5.88
2023-05-12T19:02:01.211Z,7.25
2023-05-12T19:07:20.796Z,6.63
2023-05-12T19:12:29.593Z,6.25
2023-05-12T19:17:39.090Z,6.50
2023-05-12T19:24:02.620Z,7.45
2023-05-12T19:35:41.876Z,8.60
2023-05-12T19:41:53.307Z,6.85
2023-05-12T19:47:48.144Z,6.35
2023-05-12T19:52:56.153Z,7.20
2023-05-12T19:59:26.217Z,7.72
2023-05-12T20:04:41.833Z,5.35
2023-05-12T20:09:50.368Z,7.03
2023-05-12T20:20:27.318Z,7.20
2023-05-12T20:25:33.460Z,7.75
2023-05-12T20:30:57.945Z,6.80
2023-05-12T20:41:56.973Z,8.40
2023-05-12T20:47:02.620Z,8.35
2023-05-12T20:52:06.591Z,7.90
2023-05-12T20:57:10.555Z,6.43
2023-05-12T21:02:14.009Z,8.10
2023-05-12T21:07:17.120Z,6.88
2023-05-12T21:12:30.446Z,8.40
2023-05-12T21:17:35.459Z,6.07
2023-05-12T21:23:06.227Z,6.90
2023-05-12T21:28:12.863Z,6.90
2023-05-12T21:33:19.412Z,7.28
2023-05-12T21:38:22.246Z,5.22
2023-05-12T21:43:24.667Z,4.43
2023-05-12T21:48:26.942Z,5.40
2023-05-12T21:53:29.689Z,4.57
2023-05-12T21:58:39.349Z,5.03
2023-05-12T22:03:42.192Z,4.45
2023-05-12T22:08:45.597Z,4.53
2023-05-12T22:13:48.431Z,4.55
2023-05-12T22:18:51.039Z,4.75
2023-05-12T22:23:53.766Z,4.45
2023-05-12T22:28:56.077Z,4.18
2023-05-12T22:33:58.501Z,4.10
2023-05-12T22:39:01.152Z,3.42
2023-05-12T22:44:03.676Z,3.20
2023-05-12T22:49:08.048Z,3.90
2023-05-12T22:54:10.420Z,4.75
2023-05-12T22:59:12.805Z,3.63
2023-05-12T23:04:44.625Z,3.20
2023-05-12T23:09:48.085Z,3.95
2023-05-12T23:14:53.585Z,4.00
2023-05-12T23:19:58.227Z,4.40
2023-05-12T23:25:00.955Z,5.30
2023-05-12T23:30:07.431Z,3.60
2023-05-12T23:35:10.137Z,3.92
2023-05-12T23:40:13.913Z,3.85
2023-05-12T23:45:16.359Z,3.78
2023-05-12T23:50:51.292Z,4.13
2023-05-12T23:55:59.950Z,4.80
